createdAt,value
2019-01-09T00:01:28.405Z,3.23
2019-01-09T00:04:16.801Z,2.60
2019-01-09T00:06:59.822Z,3.63
2019-01-09T00:09:40.554Z,2.60
2019-01-09T00:12:21.937Z,3.23
2019-01-09T00:15:04.394Z,3.23
2019-01-09T00:17:45.432Z,3.80
2019-01-09T00:20:24.872Z,2.90
2019-01-09T00:26:13.024Z,2.57
2019-01-09T00:28:52.504Z,2.80
2019-01-09T00:34:40.845Z,2.67
2019-01-09T00:37:20.258Z,2.63
2019-01-09T00:40:00.901Z,2.40
2019-01-09T00:42:41.620Z,2.47
2019-01-09T00:45:23.041Z,3.10
2019-01-09T00:48:04.505Z,2.50
2019-01-09T00:50:45.190Z,3.20
2019-01-09T00:53:25.748Z,2.40
2019-01-09T00:56:07.057Z,2.97
2019-01-09T00:58:47.841Z,3.20
2019-01-09T01:01:29.240Z,2.10
2019-01-09T01:04:09.757Z,3.73
2019-01-09T01:06:51.221Z,2.30
2019-01-09T01:09:32.700Z,2.23
2019-01-09T01:12:13.313Z,2.57
2019-01-09T01:14:53.830Z,2.60
2019-01-09T01:17:34.562Z,3.03
2019-01-09T01:20:15.385Z,2.93
2019-01-09T01:22:56.804Z,2.40
2019-01-09T01:25:37.336Z,2.90
2019-01-09T01:28:18.587Z,2.73
2019-01-09T01:30:59.188Z,1.90
2019-01-09T01:33:40.644Z,2.40
2019-01-09T01:36:21.814Z,2.13
2019-01-09T01:39:02.953Z,2.27
2019-01-09T01:41:44.364Z,2.40
2019-01-09T01:44:45.034Z,1.93
2019-01-09T01:47:52.440Z,2.00
2019-01-09T01:50:33.319Z,2.33
2019-01-09T01:53:14.701Z,2.90
2019-01-09T01:55:56.120Z,2.37
2019-01-09T01:58:36.752Z,2.20
2019-01-09T02:01:17.567Z,2.23
2019-01-09T02:03:58.788Z,2.40
2019-01-09T02:06:40.173Z,3.00
2019-01-09T02:09:20.780Z,2.20
2019-01-09T02:12:02.083Z,2.50
2019-01-09T02:14:42.680Z,2.07
2019-01-09T02:17:23.692Z,2.27
2019-01-09T02:20:04.303Z,2.60
2019-01-09T02:25:31.042Z,1.87
2019-01-09T02:28:11.922Z,2.17
2019-01-09T02:30:52.480Z,2.67
2019-01-09T02:33:33.180Z,1.70
2019-01-09T02:36:14.530Z,2.13
2019-01-09T02:38:55.501Z,2.00
2019-01-09T02:41:36.065Z,2.83
2019-01-09T02:44:17.172Z,2.17
2019-01-09T02:46:57.936Z,2.20
2019-01-09T02:49:38.614Z,2.07
2019-01-09T02:52:19.333Z,2.70
2019-01-09T02:54:59.917Z,2.90
2019-01-09T02:57:41.308Z,2.53
2019-01-09T03:00:20.754Z,2.47
2019-01-09T03:06:09.384Z,2.73
2019-01-09T03:08:49.973Z,3.20
2019-01-09T03:11:31.374Z,3.17
2019-01-09T03:14:12.685Z,2.53
2019-01-09T03:16:53.345Z,2.93
2019-01-09T03:19:34.418Z,2.63
2019-01-09T03:22:15.580Z,2.90
2019-01-09T03:24:56.278Z,2.90
2019-01-09T03:27:37.409Z,2.63
2019-01-09T03:30:18.906Z,2.40
2019-01-09T03:32:59.838Z,2.20
2019-01-09T03:35:40.645Z,2.60
2019-01-09T03:38:22.097Z,2.83
2019-01-09T03:41:02.854Z,2.03
2019-01-09T03:43:43.602Z,2.40
2019-01-09T03:46:24.609Z,2.20
2019-01-09T03:49:05.992Z,2.47
2019-01-09T03:51:47.382Z,2.10
2019-01-09T03:54:28.813Z,2.03
2019-01-09T03:57:09.606Z,1.83
2019-01-09T03:59:50.368Z,1.87
2019-01-09T04:02:31.697Z,2.00
2019-01-09T04:05:12.240Z,1.70
2019-01-09T04:07:53.268Z,2.00
2019-01-09T04:10:33.816Z,1.93
2019-01-09T04:13:14.972Z,1.63
2019-01-09T04:15:56.364Z,2.07
2019-01-09T04:18:35.868Z,3.50
2019-01-09T04:24:24.625Z,1.30
2019-01-09T04:27:04.056Z,2.13
2019-01-09T04:32:39.601Z,1.90
2019-01-09T04:35:20.904Z,1.90
2019-01-09T04:38:01.818Z,1.73
2019-01-09T04:40:43.318Z,1.67
2019-01-09T04:43:24.195Z,2.10
2019-01-09T04:46:04.820Z,1.57
2019-01-09T04:48:46.017Z,2.13
2019-01-09T04:51:26.588Z,2.87
2019-01-09T04:54:07.151Z,2.43
2019-01-09T04:56:47.700Z,1.77
2019-01-09T04:59:28.504Z,2.20
2019-01-09T05:02:09.120Z,2.77
2019-01-09T05:04:49.949Z,2.60
2019-01-09T05:07:29.485Z,2.80
2019-01-09T05:10:10.249Z,2.80
2019-01-09T05:12:51.068Z,2.27
2019-01-09T05:15:33.645Z,3.27
2019-01-09T05:18:14.834Z,3.30
2019-01-09T05:20:54.373Z,2.80
2019-01-09T05:26:43.042Z,1.80
2019-01-09T05:29:23.612Z,1.60
2019-01-09T05:32:04.976Z,1.63
2019-01-09T05:34:45.772Z,1.97
2019-01-09T05:37:26.385Z,2.03
2019-01-09T05:40:07.152Z,1.37
2019-01-09T05:42:48.013Z,0.67
2019-01-09T05:45:29.307Z,0.30
2019-01-09T05:48:10.568Z,0.60
2019-01-09T05:50:51.486Z,0.60
2019-01-09T05:53:32.181Z,0.40
2019-01-09T05:56:13.528Z,1.17
2019-01-09T05:58:54.881Z,3.17
2019-01-09T06:01:35.733Z,1.37
2019-01-09T06:04:15.148Z,1.70
2019-01-09T06:06:55.905Z,2.07
2019-01-09T06:09:36.761Z,1.63
2019-01-09T06:12:17.328Z,0.63
2019-01-09T06:14:56.809Z,0.60
2019-01-09T06:17:39.068Z,0.70
2019-01-09T06:20:19.874Z,0.80
2019-01-09T06:23:01.189Z,0.90
2019-01-09T06:25:41.968Z,1.53
2019-01-09T06:28:22.752Z,1.43
2019-01-09T06:31:04.193Z,1.97
2019-01-09T06:33:44.900Z,1.70
2019-01-09T06:36:25.525Z,1.73
2019-01-09T06:39:06.072Z,3.07
2019-01-09T06:41:46.690Z,2.77
2019-01-09T06:44:28.007Z,3.80
2019-01-09T06:47:08.869Z,3.20
2019-01-09T06:49:49.622Z,9.73
2019-01-09T06:52:30.397Z,12.67
2019-01-09T06:55:10.959Z,9.43
2019-01-09T06:57:52.462Z,5.00
2019-01-09T07:00:33.880Z,7.57
2019-01-09T07:03:15.227Z,4.77
2019-01-09T07:05:56.588Z,3.60
2019-01-09T07:08:36.112Z,3.30
2019-01-09T07:11:24.500Z,5.83
2019-01-09T07:14:05.063Z,6.20
2019-01-09T07:16:46.469Z,5.50
2019-01-09T07:19:27.872Z,4.47
2019-01-09T07:22:08.629Z,2.60
2019-01-09T07:24:49.553Z,3.17
2019-01-09T07:27:31.001Z,2.23
2019-01-09T07:30:12.343Z,2.27
2019-01-09T07:32:53.088Z,2.87
2019-01-09T07:35:34.549Z,2.50
2019-01-09T07:38:15.116Z,1.87
2019-01-09T07:40:55.725Z,3.07
2019-01-09T07:43:36.298Z,2.57
2019-01-09T07:46:17.752Z,1.83
2019-01-09T07:48:58.560Z,1.23
2019-01-09T07:51:39.117Z,2.73
2019-01-09T07:54:20.523Z,3.50
2019-01-09T07:57:01.913Z,2.27
2019-01-09T07:59:42.567Z,1.87
2019-01-09T08:02:24.136Z,2.67
2019-01-09T08:05:04.716Z,2.27
2019-01-09T08:07:53.914Z,1.90
2019-01-09T08:10:28.796Z,2.23
2019-01-09T08:13:10.232Z,2.27
2019-01-09T08:15:50.792Z,2.27
2019-01-09T08:18:31.580Z,3.00
2019-01-09T08:21:12.183Z,3.03
2019-01-09T08:23:53.452Z,3.90
2019-01-09T08:26:34.226Z,5.33
2019-01-09T08:29:15.510Z,4.07
2019-01-09T08:31:56.078Z,4.33
2019-01-09T08:34:36.929Z,4.07
2019-01-09T08:37:18.289Z,3.37
2019-01-09T08:39:59.049Z,3.37
2019-01-09T08:42:38.451Z,4.33
2019-01-09T08:45:19.129Z,4.03
2019-01-09T08:48:00.010Z,4.90
2019-01-09T08:50:41.594Z,2.73
2019-01-09T08:53:23.052Z,2.90
2019-01-09T08:56:03.668Z,2.60
2019-01-09T08:58:44.877Z,2.70
2019-01-09T09:01:25.498Z,3.03
2019-01-09T09:04:04.931Z,1.90
2019-01-09T09:06:53.272Z,2.07
2019-01-09T09:09:34.605Z,1.93
2019-01-09T09:12:15.133Z,1.87
2019-01-09T09:14:56.489Z,1.67
2019-01-09T09:17:37.025Z,1.50
2019-01-09T09:20:17.955Z,1.40
2019-01-09T09:22:59.371Z,1.83
2019-01-09T09:25:40.200Z,1.87
2019-01-09T09:28:21.612Z,2.20
2019-01-09T09:31:02.361Z,2.63
2019-01-09T09:33:43.632Z,2.60
2019-01-09T09:36:24.381Z,2.90
2019-01-09T09:39:05.160Z,2.63
2019-01-09T09:41:46.012Z,3.30
2019-01-09T09:44:26.729Z,3.07
2019-01-09T09:47:07.312Z,2.97
2019-01-09T09:49:47.790Z,2.80
2019-01-09T09:52:28.604Z,3.27
2019-01-09T09:55:12.930Z,3.23
2019-01-09T09:57:52.352Z,3.93
2019-01-09T10:00:33.820Z,3.93
2019-01-09T10:03:13.281Z,3.60
2019-01-09T10:08:48.361Z,3.90
2019-01-09T10:11:28.909Z,4.13
2019-01-09T10:14:10.332Z,3.53
2019-01-09T10:16:51.713Z,4.00
2019-01-09T10:19:32.457Z,4.37
2019-01-09T10:22:13.087Z,4.10
2019-01-09T10:24:53.706Z,3.40
2019-01-09T10:27:35.137Z,4.40
2019-01-09T10:30:15.956Z,4.03
2019-01-09T10:32:56.649Z,4.00
2019-01-09T10:35:36.160Z,3.50
2019-01-09T10:41:24.760Z,3.97
2019-01-09T10:44:05.476Z,3.50
2019-01-09T10:46:46.149Z,3.83
2019-01-09T10:49:26.754Z,4.13
2019-01-09T10:52:06.227Z,3.57
2019-01-09T10:57:41.584Z,3.50
2019-01-09T11:00:23.000Z,3.30
2019-01-09T11:03:04.116Z,4.53
2019-01-09T11:05:45.533Z,3.00
2019-01-09T11:08:26.232Z,3.30
2019-01-09T11:11:06.892Z,4.20
2019-01-09T11:13:47.496Z,3.87
2019-01-09T11:16:28.020Z,3.57
2019-01-09T11:19:08.512Z,3.60
2019-01-09T11:21:49.116Z,3.40
2019-01-09T11:24:30.443Z,3.33
2019-01-09T11:27:11.484Z,3.33
2019-01-09T11:29:52.127Z,3.10
2019-01-09T11:32:33.437Z,5.00
2019-01-09T11:35:13.992Z,3.47
2019-01-09T11:37:54.824Z,3.83
2019-01-09T11:40:35.973Z,3.33
2019-01-09T11:43:17.374Z,3.40
2019-01-09T11:45:58.856Z,2.80
2019-01-09T11:48:39.469Z,3.17
2019-01-09T11:51:20.317Z,3.63
2019-01-09T11:54:01.112Z,3.40
2019-01-09T11:56:42.418Z,3.97
2019-01-09T11:59:23.830Z,4.70
2019-01-09T12:02:03.297Z,4.37
2019-01-09T12:04:44.177Z,3.97
2019-01-09T12:07:24.916Z,3.60
2019-01-09T12:10:05.511Z,4.53
2019-01-09T12:12:46.222Z,4.20
2019-01-09T12:15:26.769Z,4.27
2019-01-09T12:18:08.249Z,3.77
2019-01-09T12:20:49.290Z,4.70
2019-01-09T12:23:30.372Z,5.83
2019-01-09T12:26:11.823Z,4.33
2019-01-09T12:28:53.780Z,6.27
2019-01-09T12:31:34.998Z,6.33
2019-01-09T12:34:15.701Z,6.93
2019-01-09T12:36:57.053Z,5.57
2019-01-09T12:39:38.357Z,6.17
2019-01-09T12:42:19.824Z,4.13
2019-01-09T12:45:01.219Z,4.20
2019-01-09T12:47:42.529Z,4.47
2019-01-09T12:50:23.965Z,4.60
2019-01-09T12:53:04.673Z,3.77
2019-01-09T12:55:45.224Z,4.47
2019-01-09T12:58:26.029Z,4.80
2019-01-09T13:01:07.305Z,4.73
2019-01-09T13:03:48.168Z,4.87
2019-01-09T13:06:28.706Z,4.67
2019-01-09T13:09:09.201Z,4.53
2019-01-09T13:11:49.764Z,5.20
2019-01-09T13:14:30.757Z,5.40
2019-01-09T13:17:12.336Z,6.20
2019-01-09T13:19:53.736Z,5.23
2019-01-09T13:22:34.349Z,6.73
2019-01-09T13:25:15.148Z,9.40
2019-01-09T13:27:55.736Z,7.17
2019-01-09T13:30:36.452Z,6.90
2019-01-09T13:33:17.052Z,21.20
2019-01-09T13:35:56.573Z,21.17
2019-01-09T13:38:36.061Z,52.10
2019-01-09T13:44:11.347Z,94.23
2019-01-09T13:46:52.861Z,97.77
2019-01-09T13:49:33.908Z,11.97
2019-01-09T13:52:14.831Z,7.87
2019-01-09T13:54:56.136Z,6.47
2019-01-09T13:57:35.634Z,6.97
2019-01-09T14:00:16.591Z,6.00
2019-01-09T14:02:57.506Z,4.60
2019-01-09T14:05:38.333Z,4.90
2019-01-09T14:08:19.228Z,4.93
2019-01-09T14:11:00.577Z,5.70
2019-01-09T14:13:41.132Z,6.40
2019-01-09T14:16:21.813Z,5.00
2019-01-09T14:19:02.813Z,6.97
2019-01-09T14:21:44.030Z,5.80
2019-01-09T14:24:24.885Z,6.03
2019-01-09T14:27:05.720Z,5.30
2019-01-09T14:29:46.390Z,5.17
2019-01-09T14:32:27.908Z,6.30
2019-01-09T14:35:07.480Z,6.53
2019-01-09T14:37:48.210Z,7.50
2019-01-09T14:40:28.814Z,7.83
2019-01-09T14:43:10.293Z,5.60
2019-01-09T14:45:51.629Z,5.33
2019-01-09T14:48:32.260Z,5.80
2019-01-09T14:51:12.937Z,6.63
2019-01-09T14:53:53.588Z,6.50
2019-01-09T14:56:34.133Z,6.20
2019-01-09T14:59:14.736Z,6.27
2019-01-09T15:01:56.123Z,5.40
2019-01-09T15:04:36.765Z,5.93
2019-01-09T15:07:17.509Z,5.23
2019-01-09T15:09:58.468Z,5.27
2019-01-09T15:12:39.895Z,5.67
2019-01-09T15:15:21.229Z,5.83
2019-01-09T15:18:02.086Z,7.93
2019-01-09T15:20:43.564Z,7.20
2019-01-09T15:23:24.922Z,6.77
2019-01-09T15:26:05.437Z,8.70
2019-01-09T15:28:45.926Z,9.33
2019-01-09T15:31:26.789Z,7.03
2019-01-09T15:34:07.653Z,7.17
2019-01-09T15:36:48.788Z,7.23
2019-01-09T15:39:29.814Z,6.23
2019-01-09T15:42:10.377Z,6.43
2019-01-09T15:44:51.640Z,6.17
2019-01-09T15:47:32.257Z,8.00
2019-01-09T15:50:12.881Z,8.30
2019-01-09T15:52:53.367Z,6.30
2019-01-09T15:55:34.020Z,6.60
2019-01-09T15:58:14.855Z,6.63
2019-01-09T16:00:56.109Z,6.37
2019-01-09T16:03:37.133Z,6.87
2019-01-09T16:06:17.672Z,6.37
2019-01-09T16:08:59.032Z,6.20
2019-01-09T16:11:39.617Z,5.80
2019-01-09T16:14:20.184Z,6.10
2019-01-09T16:17:01.591Z,6.60
2019-01-09T16:19:42.960Z,7.53
2019-01-09T16:22:25.467Z,7.57
2019-01-09T16:25:06.624Z,7.47
2019-01-09T16:27:47.417Z,7.10
2019-01-09T16:30:33.907Z,6.90
2019-01-09T16:33:10.866Z,8.10
2019-01-09T16:35:51.737Z,7.17
2019-01-09T16:38:32.324Z,7.80
2019-01-09T16:41:13.710Z,8.03
2019-01-09T16:43:54.271Z,8.23
2019-01-09T16:46:35.092Z,8.00
2019-01-09T16:49:16.831Z,8.43
2019-01-09T16:51:58.225Z,8.07
2019-01-09T16:54:39.385Z,7.57
2019-01-09T16:57:20.356Z,7.70
2019-01-09T17:00:01.002Z,8.40
2019-01-09T17:02:42.404Z,7.87
2019-01-09T17:05:22.027Z,8.93
2019-01-09T17:08:02.941Z,9.40
2019-01-09T17:10:44.441Z,7.87
2019-01-09T17:13:24.942Z,7.90
2019-01-09T17:16:05.810Z,7.60
2019-01-09T17:18:47.216Z,7.77
2019-01-09T17:21:28.645Z,7.97
2019-01-09T17:24:10.122Z,7.70
2019-01-09T17:26:51.412Z,7.47
2019-01-09T17:29:32.800Z,8.07
2019-01-09T17:32:14.252Z,8.73
2019-01-09T17:34:55.201Z,7.57
2019-01-09T17:37:36.029Z,8.97
2019-01-09T17:40:17.356Z,9.27
2019-01-09T17:42:58.761Z,9.60
2019-01-09T17:45:39.428Z,9.20
2019-01-09T17:48:20.081Z,9.27
2019-01-09T17:51:00.781Z,9.47
2019-01-09T17:53:42.197Z,9.00
2019-01-09T17:56:22.823Z,8.83
2019-01-09T17:59:03.724Z,8.60
2019-01-09T18:01:44.488Z,8.67
2019-01-09T18:04:25.412Z,7.60
2019-01-09T18:07:06.421Z,8.13
2019-01-09T18:09:47.169Z,9.10
2019-01-09T18:12:28.361Z,9.27
2019-01-09T18:15:09.418Z,8.17
2019-01-09T18:17:51.092Z,7.53
2019-01-09T18:20:31.691Z,7.63
2019-01-09T18:23:13.212Z,7.70
2019-01-09T18:25:54.761Z,9.13
2019-01-09T18:28:35.933Z,7.20
2019-01-09T18:31:16.971Z,7.63
2019-01-09T18:33:57.588Z,7.67
2019-01-09T18:36:39.078Z,7.83
2019-01-09T18:39:19.718Z,7.50
2019-01-09T18:42:00.272Z,7.03
2019-01-09T18:44:41.729Z,7.63
2019-01-09T18:47:22.997Z,7.50
2019-01-09T18:53:50.228Z,7.80
2019-01-09T18:56:38.575Z,7.97
2019-01-09T19:02:14.133Z,7.40
2019-01-09T19:04:54.776Z,7.53
2019-01-09T19:07:36.328Z,7.57
2019-01-09T19:10:17.088Z,7.57
2019-01-09T19:12:58.680Z,7.37
2019-01-09T19:15:39.360Z,7.37
2019-01-09T19:18:20.721Z,7.73
2019-01-09T19:21:01.617Z,6.87
2019-01-09T19:23:42.397Z,8.80
2019-01-09T19:26:23.888Z,6.67
2019-01-09T19:29:05.364Z,7.37
2019-01-09T19:31:46.790Z,8.57
2019-01-09T19:34:28.148Z,7.67
2019-01-09T19:37:09.394Z,11.10
2019-01-09T19:39:48.888Z,7.07
2019-01-09T19:45:37.152Z,7.70
2019-01-09T19:48:18.521Z,7.33
2019-01-09T19:50:59.801Z,7.03
2019-01-09T19:53:40.356Z,6.27
2019-01-09T19:56:21.760Z,6.33
2019-01-09T19:59:02.318Z,7.33
2019-01-09T20:01:43.689Z,6.50
2019-01-09T20:04:24.255Z,6.50
2019-01-09T20:07:05.080Z,6.70
2019-01-09T20:09:46.533Z,6.70
2019-01-09T20:12:27.786Z,7.93
2019-01-09T20:15:08.337Z,6.63
2019-01-09T20:17:48.976Z,6.60
2019-01-09T20:20:29.532Z,6.50
2019-01-09T20:23:11.134Z,6.23
2019-01-09T20:25:51.778Z,7.00
2019-01-09T20:28:32.411Z,6.83
2019-01-09T20:31:13.138Z,6.70
2019-01-09T20:33:54.525Z,5.90
2019-01-09T20:36:35.675Z,6.67
2019-01-09T20:39:16.518Z,6.47
2019-01-09T20:41:57.256Z,6.50
2019-01-09T20:44:36.703Z,6.00
2019-01-09T20:50:11.589Z,5.97
2019-01-09T20:52:52.849Z,6.00
2019-01-09T20:55:33.573Z,6.40
2019-01-09T20:58:14.276Z,6.70
2019-01-09T21:00:55.788Z,7.87
2019-01-09T21:03:37.281Z,7.27
2019-01-09T21:06:18.007Z,7.80
2019-01-09T21:09:00.153Z,6.47
2019-01-09T21:11:44.494Z,6.50
2019-01-09T21:14:23.633Z,5.67
2019-01-09T21:17:04.538Z,5.47
2019-01-09T21:19:45.069Z,5.17
2019-01-09T21:22:25.825Z,5.73
2019-01-09T21:25:06.436Z,6.13
2019-01-09T21:27:47.005Z,5.63
2019-01-09T21:30:28.366Z,7.60
2019-01-09T21:33:08.986Z,6.13
2019-01-09T21:35:49.640Z,6.20
2019-01-09T21:38:31.123Z,6.30
2019-01-09T21:41:12.069Z,6.30
2019-01-09T21:43:53.290Z,6.03
2019-01-09T21:46:34.646Z,6.07
2019-01-09T21:49:16.188Z,5.67
2019-01-09T21:51:56.812Z,6.37
2019-01-09T21:54:38.196Z,5.80
2019-01-09T21:57:18.956Z,5.97
2019-01-09T22:00:00.204Z,5.50
2019-01-09T22:02:41.291Z,6.03
2019-01-09T22:05:22.707Z,6.57
2019-01-09T22:08:03.385Z,6.00
2019-01-09T22:10:44.876Z,6.90
2019-01-09T22:13:25.501Z,6.53
2019-01-09T22:16:06.276Z,7.27
2019-01-09T22:18:47.636Z,6.83
2019-01-09T22:21:28.340Z,6.40
2019-01-09T22:24:09.748Z,6.97
2019-01-09T22:26:51.097Z,7.23
2019-01-09T22:29:31.700Z,7.30
2019-01-09T22:32:12.500Z,10.47
2019-01-09T22:34:53.932Z,7.77
2019-01-09T22:37:34.625Z,6.90
2019-01-09T22:40:15.193Z,8.97
2019-01-09T22:42:55.980Z,7.50
2019-01-09T22:45:36.789Z,8.07
2019-01-09T22:48:17.529Z,14.27
2019-01-09T22:50:58.034Z,14.10
2019-01-09T22:53:38.897Z,8.87
2019-01-09T22:56:19.729Z,8.37
2019-01-09T22:59:00.650Z,7.73
2019-01-09T23:01:42.073Z,7.77
2019-01-09T23:04:23.393Z,8.87
2019-01-09T23:07:04.350Z,8.23
2019-01-09T23:09:45.697Z,8.60
2019-01-09T23:12:26.277Z,9.27
2019-01-09T23:15:07.973Z,9.80
2019-01-09T23:17:47.428Z,9.53
2019-01-09T23:23:35.668Z,9.50
2019-01-09T23:26:16.404Z,9.40
2019-01-09T23:28:57.781Z,10.40
2019-01-09T23:31:38.485Z,10.50
2019-01-09T23:34:19.414Z,10.73
2019-01-09T23:37:00.188Z,10.13
2019-01-09T23:39:41.025Z,11.03
2019-01-09T23:42:30.079Z,11.87
2019-01-09T23:45:04.952Z,11.50
2019-01-09T23:47:46.417Z,10.83
2019-01-09T23:50:27.781Z,11.73
2019-01-09T23:53:08.578Z,12.07
2019-01-09T23:55:49.460Z,12.97
2019-01-09T23:58:30.096Z,13.07
